Terminal Aerodrome Forecast
Issued by NWS Cleveland, OH

Home | Current Version | Previous Version | Graphics & Text | Print | Product List | Glossary On
Versions: 1 2 3 4 5 6 7 8 9 10 11 12 13 14 15 16 17 18 19 20
000
FTUS41 KCLE 281100
TAFERI
TAF
KERI 281139Z 2812/2912 31010KT P6SM VCSH BKN014
      TEMPO 2812/2816 31010G18KT 3SM SHRA BR BKN025
     FM281600 34014G22KT P6SM VCSH BKN025
     FM290100 32010KT P6SM BKN030
     FM290600 26005KT P6SM BKN040=

USA.gov is the U.S. government's official web portal to all federal, state and local government web resources and services.